Time;durP1;ratioP1;P1;durP2;ratioP2;P2;SDS_P1;SDS_P2;PMS_P1;PMS_P2;Temp;Humidity;BMP_temperature;BMP_pressure;BME280_temperature;BME280_humidity;BME280_pressure;Samples;Min_cycle;Max_cycle;Signal;HPM_P1;HPM_P2
2020/12/08 00:02:20;;;;;;;28.23;17.45;;;5.80;99.90;;;;;;5072116;28;20885;-83
2020/12/08 00:04:46;;;;;;;33.17;19.27;;;5.80;99.90;;;;;;5072046;28;20384;-83
2020/12/08 00:07:12;;;;;;;25.48;16.20;;;5.80;99.90;;;;;;5054146;28;20366;-83
2020/12/08 00:09:38;;;;;;;30.60;20.55;;;5.80;99.90;;;;;;5071875;28;20726;-83
2020/12/08 00:12:05;;;;;;;29.52;18.08;;;5.70;99.90;;;;;;5072036;28;20374;-84
2020/12/08 00:14:31;;;;;;;32.95;21.05;;;5.70;99.90;;;;;;5054055;28;20392;-84
2020/12/08 00:16:57;;;;;;;26.20;16.65;;;5.70;99.90;;;;;;5072004;28;20361;-84
2020/12/08 00:19:23;;;;;;;24.60;16.50;;;5.70;99.90;;;;;;5075787;28;20361;-83
2020/12/08 00:21:49;;;;;;;27.33;16.47;;;5.70;99.90;;;;;;5057941;28;20419;-82
2020/12/08 00:24:15;;;;;;;29.03;18.93;;;5.70;99.90;;;;;;5057758;28;20729;-82
2020/12/08 00:26:42;;;;;;;38.38;23.48;;;5.70;99.90;;;;;;5076068;28;20898;-82
2020/12/08 00:29:08;;;;;;;36.20;22.45;;;5.70;99.90;;;;;;5057722;28;20408;-82
2020/12/08 00:31:35;;;;;;;38.28;23.05;;;5.70;99.90;;;;;;5057808;28;20366;-82
2020/12/08 00:34:01;;;;;;;33.60;20.90;;;5.60;99.90;;;;;;5075445;28;20386;-82
2020/12/08 00:36:27;;;;;;;27.70;17.88;;;5.60;99.90;;;;;;5075548;28;20358;-82
2020/12/08 00:38:53;;;;;;;26.15;18.27;;;5.60;99.90;;;;;;5057666;28;20853;-83
2020/12/08 00:41:21;;;;;;;28.33;18.23;;;5.60;99.90;;;;;;5075445;28;20389;-83
2020/12/08 00:43:49;;;;;;;24.67;17.60;;;5.60;99.90;;;;;;5075507;28;20370;-83
2020/12/08 00:46:19;;;;;;;24.55;17.38;;;5.60;99.90;;;;;;5075370;28;20394;-83
2020/12/08 00:48:46;;;;;;;42.78;16.60;;;5.60;99.90;;;;;;5075431;28;20623;-83
2020/12/08 00:51:12;;;;;;;28.65;17.30;;;5.60;99.90;;;;;;5057582;28;20369;-83
2020/12/08 00:53:38;;;;;;;28.92;14.93;;;5.50;99.90;;;;;;5057320;28;20771;-82
2020/12/08 00:56:09;;;;;;;29.75;15.13;;;5.50;99.90;;;;;;5057145;28;20377;-84
2020/12/08 00:58:36;;;;;;;21.00;14.13;;;5.50;99.90;;;;;;5075273;28;20369;-84
2020/12/08 01:01:03;;;;;;;18.27;12.70;;;5.50;99.90;;;;;;5075215;28;20448;-83
2020/12/08 01:03:28;;;;;;;21.35;12.90;;;5.50;99.90;;;;;;5075497;28;20367;-85
2020/12/08 01:05:54;;;;;;;29.65;12.75;;;5.40;99.90;;;;;;5057183;28;20370;-85
2020/12/08 01:08:20;;;;;;;18.95;12.82;;;5.50;99.90;;;;;;5057113;28;20493;-84
2020/12/08 01:10:46;;;;;;;19.90;12.73;;;5.40;99.90;;;;;;5053527;28;20433;-85
2020/12/08 01:13:12;;;;;;;19.67;12.05;;;5.40;99.90;;;;;;5053685;28;20449;-84
2020/12/08 01:15:37;;;;;;;15.37;11.53;;;5.40;99.90;;;;;;5054944;28;20426;-84
2020/12/08 01:18:05;;;;;;;14.40;10.50;;;5.40;99.90;;;;;;5055046;28;20425;-85
2020/12/08 01:20:31;;;;;;;16.15;11.77;;;5.40;99.90;;;;;;5053537;28;20757;-85
2020/12/08 01:22:56;;;;;;;13.45;10.43;;;5.40;99.90;;;;;;5053454;28;20387;-84
2020/12/08 01:25:22;;;;;;;16.17;10.80;;;5.40;99.90;;;;;;5053529;28;20433;-84
2020/12/08 01:27:48;;;;;;;18.08;12.32;;;5.30;99.90;;;;;;5054943;28;20364;-85
2020/12/08 01:30:14;;;;;;;23.55;11.85;;;5.30;99.90;;;;;;5052267;28;20373;-83
2020/12/08 01:32:40;;;;;;;19.38;13.10;;;5.30;99.90;;;;;;5054708;28;20444;-83
2020/12/08 01:35:05;;;;;;;19.23;12.30;;;5.30;99.90;;;;;;5054806;28;20410;-83
2020/12/08 01:37:31;;;;;;;16.15;11.82;;;5.30;99.90;;;;;;5053275;28;20364;-83
2020/12/08 01:39:57;;;;;;;16.50;12.32;;;5.30;99.90;;;;;;5054333;28;20371;-82
2020/12/08 01:42:23;;;;;;;17.75;12.63;;;5.30;99.90;;;;;;5053204;28;20383;-82
2020/12/08 01:44:50;;;;;;;15.13;11.37;;;5.20;99.90;;;;;;5054356;28;20425;-82
2020/12/08 01:47:16;;;;;;;14.57;10.32;;;5.20;99.90;;;;;;5053269;28;20383;-82
2020/12/08 01:49:48;;;;;;;17.60;12.68;;;5.20;99.90;;;;;;5053347;28;20449;-82
2020/12/08 01:52:18;;;;;;;17.67;12.63;;;5.20;99.90;;;;;;5054522;28;20388;-82
2020/12/08 01:54:46;;;;;;;23.05;15.65;;;5.20;99.90;;;;;;5052888;28;20433;-83
2020/12/08 01:57:12;;;;;;;40.55;23.02;;;5.10;99.90;;;;;;5052898;28;20371;-83
2020/12/08 01:59:38;;;;;;;37.72;19.35;;;5.10;99.90;;;;;;5054020;28;20870;-83
2020/12/08 02:02:04;;;;;;;27.60;15.30;;;5.10;99.90;;;;;;5052789;28;20799;-84
2020/12/08 02:04:30;;;;;;;24.37;16.70;;;5.20;99.90;;;;;;5052693;28;20403;-84
2020/12/08 02:06:57;;;;;;;23.48;14.35;;;5.10;99.90;;;;;;5052675;28;20754;-84
2020/12/08 02:09:22;;;;;;;26.50;14.90;;;5.10;99.90;;;;;;5055608;28;20384;-83
2020/12/08 02:11:49;;;;;;;27.43;14.93;;;5.10;99.90;;;;;;5073817;28;20373;-83
2020/12/08 02:14:15;;;;;;;17.85;11.93;;;5.10;99.90;;;;;;5055796;28;20400;-83
2020/12/08 02:16:41;;;;;;;19.80;11.73;;;5.10;99.90;;;;;;5055969;28;21140;-82
2020/12/08 02:19:07;;;;;;;15.45;10.93;;;5.10;99.90;;;;;;5073552;28;20362;-82
2020/12/08 02:21:34;;;;;;;16.77;10.63;;;5.00;99.90;;;;;;5073615;28;20362;-82
2020/12/08 02:24:01;;;;;;;17.05;11.90;;;5.00;99.90;;;;;;5073799;28;20492;-83
2020/12/08 02:26:28;;;;;;;18.00;12.10;;;5.00;99.90;;;;;;5073499;28;20394;-82
2020/12/08 02:28:54;;;;;;;19.52;13.50;;;5.00;99.90;;;;;;5055598;28;20370;-82
2020/12/08 02:31:21;;;;;;;18.33;13.68;;;5.00;99.90;;;;;;5073478;28;20401;-82
2020/12/08 02:33:47;;;;;;;19.27;14.25;;;5.00;99.90;;;;;;5073281;28;20394;-82
2020/12/08 02:36:13;;;;;;;17.30;13.25;;;5.00;99.90;;;;;;5055720;28;20861;-82
2020/12/08 02:38:38;;;;;;;17.48;12.52;;;4.90;99.90;;;;;;5055410;28;20375;-82
2020/12/08 02:41:04;;;;;;;17.67;12.90;;;4.90;99.90;;;;;;5073056;28;20852;-82
2020/12/08 02:43:31;;;;;;;19.30;14.70;;;4.90;99.90;;;;;;5055437;28;20404;-82
2020/12/08 02:46:00;;;;;;;17.65;13.63;;;4.80;99.90;;;;;;5055160;28;20370;-82
2020/12/08 02:48:26;;;;;;;18.20;13.77;;;4.90;99.90;;;;;;5055221;28;20390;-82
2020/12/08 02:50:52;;;;;;;22.05;15.50;;;4.80;99.90;;;;;;5073134;28;20359;-82
2020/12/08 02:53:18;;;;;;;19.13;13.95;;;4.80;99.90;;;;;;5054964;28;20911;-82
2020/12/08 02:55:48;;;;;;;23.42;17.02;;;4.80;99.90;;;;;;5073021;28;20394;-82
2020/12/08 02:58:14;;;;;;;30.98;17.35;;;4.80;99.90;;;;;;5055037;28;20871;-81
2020/12/08 03:00:40;;;;;;;20.48;15.00;;;4.70;99.90;;;;;;5072855;28;20377;-83
2020/12/08 03:03:06;;;;;;;20.25;13.95;;;4.70;99.90;;;;;;5072929;28;20366;-82
2020/12/08 03:05:32;;;;;;;20.33;15.15;;;4.70;99.90;;;;;;5072739;28;20419;-83
2020/12/08 03:07:58;;;;;;;22.17;15.73;;;4.70;99.90;;;;;;5054880;28;20374;-83
2020/12/08 03:10:24;;;;;;;20.73;14.97;;;4.70;99.90;;;;;;5072560;28;20458;-83
2020/12/08 03:12:49;;;;;;;21.00;14.83;;;4.70;99.90;;;;;;5072684;28;20382;-83
2020/12/08 03:15:15;;;;;;;18.00;13.37;;;4.70;99.90;;;;;;5054818;28;20370;-83
2020/12/08 03:17:41;;;;;;;22.20;13.67;;;4.70;99.90;;;;;;5072639;28;20804;-80
2020/12/08 03:20:07;;;;;;;24.57;15.67;;;4.70;99.90;;;;;;5072636;28;20427;-80
2020/12/08 03:22:34;;;;;;;30.92;15.23;;;4.70;99.90;;;;;;5072912;28;20354;-83
2020/12/08 03:25:01;;;;;;;24.80;13.95;;;4.70;99.90;;;;;;5072843;28;20366;-83
2020/12/08 03:27:27;;;;;;;18.60;11.73;;;4.70;99.90;;;;;;5072786;28;20429;-84
2020/12/08 03:29:53;;;;;;;17.83;10.82;;;4.70;99.90;;;;;;5072464;28;20400;-84
2020/12/08 03:32:19;;;;;;;15.20;10.15;;;4.70;99.90;;;;;;5054465;28;20470;-85
2020/12/08 03:34:44;;;;;;;17.42;10.55;;;4.70;99.90;;;;;;5072535;28;20717;-84
2020/12/08 03:37:10;;;;;;;31.70;11.30;;;4.70;99.90;;;;;;5072462;28;20457;-85
2020/12/08 03:39:36;;;;;;;15.65;10.45;;;4.60;99.90;;;;;;5054566;28;20449;-84
2020/12/08 03:42:03;;;;;;;16.95;9.35;;;4.60;99.90;;;;;;5072679;28;20354;-85
2020/12/08 03:44:29;;;;;;;14.35;9.45;;;4.60;99.90;;;;;;5072562;28;20441;-85
2020/12/08 03:46:57;;;;;;;15.55;10.45;;;4.60;99.90;;;;;;5054370;28;20362;-85
2020/12/08 03:49:26;;;;;;;13.70;8.65;;;4.60;99.90;;;;;;5072358;28;20370;-85
2020/12/08 03:51:56;;;;;;;28.47;10.57;;;4.50;99.90;;;;;;5072327;28;20771;-83
2020/12/08 03:54:22;;;;;;;15.83;10.20;;;4.50;99.90;;;;;;5076539;28;20401;-83
2020/12/08 03:56:48;;;;;;;16.17;10.75;;;4.50;99.90;;;;;;5076439;28;20358;-82
2020/12/08 03:59:18;;;;;;;13.33;9.80;;;4.50;99.90;;;;;;5058427;28;20441;-83
2020/12/08 04:01:51;;;;;;;13.60;9.65;;;4.50;99.90;;;;;;5058398;28;20443;-83
2020/12/08 04:04:18;;;;;;;17.52;12.02;;;4.50;99.90;;;;;;5076278;28;20853;-83
2020/12/08 04:06:44;;;;;;;18.73;13.00;;;4.40;99.90;;;;;;5076294;28;20795;-83
2020/12/08 04:09:10;;;;;;;18.43;13.83;;;4.40;99.90;;;;;;5076029;28;20449;-81
2020/12/08 04:11:36;;;;;;;20.85;13.88;;;4.50;99.90;;;;;;5058134;28;20374;-82
2020/12/08 04:14:02;;;;;;;21.35;15.00;;;4.40;99.90;;;;;;5076003;28;20394;-82
2020/12/08 04:16:32;;;;;;;19.03;15.47;;;4.40;99.90;;;;;;5075997;28;20358;-83
2020/12/08 04:18:59;;;;;;;19.53;15.17;;;4.40;99.90;;;;;;5058310;28;20457;-83
2020/12/08 04:21:26;;;;;;;19.30;13.10;;;4.40;99.90;;;;;;5058055;28;20450;-83
2020/12/08 04:24:00;;;;;;;22.48;14.02;;;4.30;99.90;;;;;;5058045;28;20408;-83
2020/12/08 04:26:30;;;;;;;57.97;31.58;;;4.40;99.90;;;;;;5057821;28;21369;-83
2020/12/08 04:28:56;;;;;;;42.60;26.75;;;4.30;99.90;;;;;;5075570;28;20378;-83
2020/12/08 04:31:22;;;;;;;29.30;22.52;;;4.30;99.90;;;;;;5057785;28;20402;-83
2020/12/08 04:33:48;;;;;;;22.85;18.25;;;4.20;99.90;;;;;;5057702;28;20396;-83
2020/12/08 04:36:19;;;;;;;33.20;13.93;;;4.30;99.90;;;;;;5057920;28;20804;-83
2020/12/08 04:38:45;;;;;;;17.08;12.27;;;4.20;99.90;;;;;;5057691;28;20370;-83
2020/12/08 04:41:19;;;;;;;21.20;13.15;;;4.20;99.90;;;;;;5057487;28;20380;-83
2020/12/08 04:43:46;;;;;;;22.48;15.48;;;4.30;99.90;;;;;;5057640;28;20370;-84
2020/12/08 04:46:12;;;;;;;23.77;15.93;;;4.20;99.90;;;;;;5075485;28;20422;-83
2020/12/08 04:48:39;;;;;;;23.83;15.00;;;4.20;99.90;;;;;;5075642;28;20370;-83
2020/12/08 04:51:05;;;;;;;22.75;15.07;;;4.20;99.90;;;;;;5075431;28;20401;-83
2020/12/08 04:53:31;;;;;;;26.45;15.63;;;4.20;99.90;;;;;;5057333;28;20390;-82
2020/12/08 04:55:57;;;;;;;23.40;14.15;;;4.20;99.90;;;;;;5075586;28;20441;-83
2020/12/08 04:58:24;;;;;;;28.65;17.15;;;4.20;99.90;;;;;;5075279;28;20362;-82
2020/12/08 05:00:50;;;;;;;23.02;15.75;;;4.20;99.90;;;;;;5075101;28;20397;-82
2020/12/08 05:03:37;;;;;;;21.33;14.70;;;4.20;99.90;;;;;;5075142;28;20371;-82
2020/12/08 05:06:05;;;;;;;20.30;14.65;;;4.10;99.90;;;;;;5075627;28;20366;-82
2020/12/08 05:08:31;;;;;;;16.52;11.80;;;4.10;99.90;;;;;;5057079;28;20370;-82
2020/12/08 05:11:08;;;;;;;19.75;12.68;;;4.10;99.90;;;;;;5074844;28;20404;-82
2020/12/08 05:13:33;;;;;;;22.27;12.63;;;4.10;99.90;;;;;;5074866;28;20520;-82
2020/12/08 05:16:07;;;;;;;22.83;14.53;;;4.10;99.90;;;;;;5074965;28;21364;-81
2020/12/08 05:18:35;;;;;;;20.90;12.95;;;4.10;99.90;;;;;;5074911;28;20836;-81
2020/12/08 05:21:11;;;;;;;19.02;12.20;;;4.20;99.90;;;;;;5056913;28;20370;-81
2020/12/08 05:23:44;;;;;;;19.00;13.00;;;4.10;99.90;;;;;;5056870;28;20422;-82
2020/12/08 05:26:15;;;;;;;18.77;12.48;;;4.10;99.90;;;;;;5074624;28;20401;-83
2020/12/08 05:28:43;;;;;;;20.88;13.02;;;4.10;99.90;;;;;;5056769;28;20374;-83
2020/12/08 05:31:10;;;;;;;20.65;13.18;;;4.10;99.90;;;;;;5074697;28;20366;-83
2020/12/08 05:33:39;;;;;;;86.15;18.38;;;4.10;99.90;;;;;;5056601;28;20810;-83
2020/12/08 05:36:06;;;;;;;23.83;15.70;;;4.10;99.90;;;;;;5056452;28;20367;-83
2020/12/08 05:38:36;;;;;;;19.63;14.23;;;4.10;99.90;;;;;;5056757;28;20370;-83
2020/12/08 05:41:07;;;;;;;24.17;16.63;;;4.00;99.90;;;;;;5056521;28;20455;-82
2020/12/08 05:43:41;;;;;;;33.92;22.58;;;3.90;99.90;;;;;;5056471;28;20366;-82
2020/12/08 05:46:09;;;;;;;32.55;21.60;;;3.90;99.90;;;;;;5074598;28;20373;-82
2020/12/08 05:48:36;;;;;;;24.67;15.15;;;3.90;99.90;;;;;;5074277;28;20378;-82
2020/12/08 05:51:06;;;;;;;22.58;15.20;;;4.00;99.90;;;;;;5074317;28;20363;-82
2020/12/08 05:53:33;;;;;;;26.55;17.63;;;4.00;99.90;;;;;;5074363;28;20397;-82
2020/12/08 05:56:09;;;;;;;32.47;20.10;;;4.00;99.90;;;;;;5056252;28;20366;-82
2020/12/08 05:58:36;;;;;;;34.20;21.70;;;3.90;99.90;;;;;;5056197;28;20448;-83
2020/12/08 06:01:08;;;;;;;36.67;22.63;;;4.00;99.90;;;;;;5056101;28;20373;-83
2020/12/08 06:03:35;;;;;;;31.00;21.88;;;3.90;99.90;;;;;;5074126;28;20377;-83
2020/12/08 06:06:10;;;;;;;31.27;22.88;;;3.90;99.90;;;;;;5073947;28;20458;-83
2020/12/08 06:08:47;;;;;;;53.38;35.08;;;3.90;99.90;;;;;;5055884;28;20865;-83
2020/12/08 06:11:13;;;;;;;66.90;46.03;;;3.80;99.90;;;;;;5073629;28;20405;-83
2020/12/08 06:13:47;;;;;;;65.55;46.47;;;3.80;99.90;;;;;;5055732;28;20393;-83
2020/12/08 06:16:18;;;;;;;55.28;38.17;;;3.80;99.90;;;;;;5073275;28;20388;-83
2020/12/08 06:18:45;;;;;;;54.33;37.53;;;3.80;99.90;;;;;;5055676;28;20763;-83
2020/12/08 06:21:24;;;;;;;58.37;40.70;;;3.90;99.90;;;;;;5073609;28;20434;-83
2020/12/08 06:23:53;;;;;;;67.32;45.03;;;3.90;99.90;;;;;;5055626;28;20763;-83
2020/12/08 06:26:37;;;;;;;80.80;52.30;;;3.90;99.90;;;;;;5055489;28;20385;-83
2020/12/08 06:29:10;;;;;;;86.78;55.47;;;3.90;99.90;;;;;;5055409;28;20465;-84
2020/12/08 06:31:45;;;;;;;93.28;59.08;;;3.90;99.90;;;;;;5055421;28;21111;-84
2020/12/08 06:34:31;;;;;;;93.40;57.28;;;3.90;99.90;;;;;;5055345;28;20535;-84
2020/12/08 06:37:10;;;;;;;100.30;66.97;;;3.90;99.90;;;;;;5055853;28;20741;-85
2020/12/08 06:39:36;;;;;;;88.45;57.17;;;3.90;99.90;;;;;;5055294;28;20461;-85
2020/12/08 06:42:14;;;;;;;60.05;40.22;;;4.00;99.90;;;;;;5073076;28;20405;-84
2020/12/08 06:44:40;;;;;;;72.13;44.13;;;4.00;99.90;;;;;;5055271;28;20413;-84
2020/12/08 06:47:06;;;;;;;66.25;43.53;;;3.90;99.90;;;;;;5073397;28;20397;-84
2020/12/08 06:49:39;;;;;;;125.68;39.75;;;4.00;99.90;;;;;;5073022;28;20370;-85
2020/12/08 06:52:09;;;;;;;36.97;23.73;;;4.00;99.90;;;;;;5054586;28;20385;-84
2020/12/08 06:54:34;;;;;;;38.90;22.67;;;4.00;99.90;;;;;;5054947;28;20477;-84
2020/12/08 06:57:02;;;;;;;34.65;23.35;;;4.00;99.90;;;;;;5055025;28;20936;-85
2020/12/08 06:59:29;;;;;;;35.90;25.73;;;4.00;99.90;;;;;;5054929;28;20733;-83
2020/12/08 07:01:56;;;;;;;35.80;25.70;;;4.00;99.90;;;;;;5054982;28;20377;-82
2020/12/08 07:04:24;;;;;;;44.97;29.65;;;4.00;99.90;;;;;;5072833;28;20370;-83
2020/12/08 07:06:51;;;;;;;39.67;27.95;;;4.00;99.90;;;;;;5072612;28;20428;-84
2020/12/08 07:09:17;;;;;;;48.23;34.10;;;4.10;99.90;;;;;;5072644;28;20477;-84
2020/12/08 07:11:43;;;;;;;39.65;26.88;;;4.10;99.90;;;;;;5054751;28;20378;-84
2020/12/08 07:14:09;;;;;;;43.15;27.70;;;4.10;99.90;;;;;;5054686;28;20394;-84
2020/12/08 07:16:36;;;;;;;38.97;27.05;;;4.20;99.90;;;;;;5072123;28;20362;-84
2020/12/08 07:19:04;;;;;;;37.72;24.25;;;4.20;99.90;;;;;;5072356;28;20369;-83
2020/12/08 07:21:31;;;;;;;43.63;25.08;;;4.20;99.90;;;;;;5072653;28;20362;-85
2020/12/08 07:23:57;;;;;;;42.97;25.63;;;4.20;99.90;;;;;;5054670;28;20465;-84
2020/12/08 07:26:30;;;;;;;36.55;23.58;;;4.30;99.90;;;;;;5072295;28;21377;-83
2020/12/08 07:28:57;;;;;;;39.22;26.65;;;4.30;99.90;;;;;;5053954;28;20413;-84
2020/12/08 07:31:32;;;;;;;34.55;22.95;;;4.40;99.90;;;;;;5072739;28;20788;-83
2020/12/08 07:33:59;;;;;;;32.15;21.50;;;4.40;99.90;;;;;;5072355;28;20865;-83
2020/12/08 07:36:32;;;;;;;30.67;21.05;;;4.50;99.90;;;;;;5072361;28;20458;-84
2020/12/08 07:39:00;;;;;;;40.38;26.67;;;4.60;99.90;;;;;;5054284;28;20374;-83
2020/12/08 07:41:30;;;;;;;79.90;43.17;;;4.60;99.90;;;;;;5054298;28;20400;-84
2020/12/08 07:43:58;;;;;;;62.13;39.65;;;4.70;99.90;;;;;;5054230;28;20792;-83
2020/12/08 07:46:31;;;;;;;49.08;33.17;;;4.70;99.90;;;;;;5072248;28;20465;-84
2020/12/08 07:49:04;;;;;;;58.10;38.50;;;4.70;99.90;;;;;;5072204;28;20428;-83
2020/12/08 07:51:30;;;;;;;40.38;26.38;;;4.80;99.90;;;;;;5054086;28;20856;-84
2020/12/08 07:53:59;;;;;;;26.23;17.45;;;4.80;99.90;;;;;;5072458;28;20385;-84
2020/12/08 07:56:30;;;;;;;24.17;14.90;;;5.00;99.90;;;;;;5054376;28;20420;-83
2020/12/08 07:58:56;;;;;;;21.10;15.18;;;5.10;99.90;;;;;;5054232;28;20385;-83
2020/12/08 08:01:22;;;;;;;20.10;14.18;;;5.20;99.90;;;;;;5054261;28;20377;-81
2020/12/08 08:03:48;;;;;;;24.40;15.73;;;5.30;99.90;;;;;;5072361;28;20460;-83
2020/12/08 08:06:16;;;;;;;41.28;15.43;;;5.40;99.90;;;;;;5072132;28;20369;-84
2020/12/08 08:08:42;;;;;;;20.77;12.98;;;5.40;99.90;;;;;;5054213;28;20374;-83
2020/12/08 08:11:08;;;;;;;23.33;16.50;;;5.50;99.90;;;;;;5053972;28;20998;-83
2020/12/08 08:13:34;;;;;;;26.97;17.70;;;5.60;99.90;;;;;;5053815;28;20462;-83
2020/12/08 08:16:00;;;;;;;27.25;17.77;;;5.70;99.90;;;;;;5054090;28;20481;-83
2020/12/08 08:18:26;;;;;;;23.63;17.13;;;5.90;99.90;;;;;;5072085;28;20390;-83
2020/12/08 08:20:52;;;;;;;21.23;13.30;;;5.90;99.90;;;;;;5072058;28;20366;-83
2020/12/08 08:23:17;;;;;;;20.10;13.45;;;6.10;99.90;;;;;;5072023;28;20423;-83
2020/12/08 08:25:43;;;;;;;19.25;13.25;;;6.20;99.90;;;;;;5072072;28;20376;-83
2020/12/08 08:28:09;;;;;;;20.77;14.07;;;6.20;99.90;;;;;;5071980;28;20372;-83
2020/12/08 08:30:35;;;;;;;24.90;15.77;;;6.40;99.90;;;;;;5053980;28;20370;-83
2020/12/08 08:33:00;;;;;;;20.33;13.83;;;6.40;99.90;;;;;;5053909;28;20469;-83
2020/12/08 08:35:27;;;;;;;20.47;14.00;;;6.50;99.90;;;;;;5071829;28;20370;-83
2020/12/08 08:37:54;;;;;;;23.03;15.20;;;6.60;99.90;;;;;;5053801;28;20844;-82
2020/12/08 08:40:20;;;;;;;24.25;16.48;;;6.70;99.90;;;;;;5057594;28;20370;-82
2020/12/08 08:42:46;;;;;;;19.10;14.38;;;6.80;99.90;;;;;;5075473;28;20365;-83
2020/12/08 08:45:14;;;;;;;22.83;14.93;;;6.90;99.90;;;;;;5057478;28;20853;-83
2020/12/08 08:47:39;;;;;;;22.17;12.80;;;7.10;99.90;;;;;;5057570;28;20366;-85
2020/12/08 08:50:05;;;;;;;30.75;13.32;;;7.10;99.90;;;;;;5075251;28;20370;-83
2020/12/08 08:52:32;;;;;;;20.48;13.45;;;7.10;99.90;;;;;;5075269;28;20767;-83
2020/12/08 08:54:58;;;;;;;22.77;13.98;;;7.20;99.90;;;;;;5075456;28;20369;-84
2020/12/08 08:57:24;;;;;;;18.38;11.90;;;7.40;99.90;;;;;;5075278;28;20366;-84
2020/12/08 08:59:50;;;;;;;17.87;11.57;;;7.40;99.90;;;;;;5074589;28;20366;-83
2020/12/08 09:02:16;;;;;;;19.73;14.13;;;7.40;99.90;;;;;;5075188;28;20840;-85
2020/12/08 09:04:42;;;;;;;17.58;12.32;;;7.60;99.90;;;;;;5057204;28;20880;-86
2020/12/08 09:07:08;;;;;;;25.03;14.47;;;7.50;99.90;;;;;;5057104;28;20717;-86
2020/12/08 09:09:34;;;;;;;27.13;17.23;;;7.70;99.90;;;;;;5075187;28;20451;-87
2020/12/08 09:12:01;;;;;;;51.45;16.17;;;7.90;99.90;;;;;;5057008;28;20382;-88
2020/12/08 09:14:29;;;;;;;26.75;15.93;;;8.10;99.90;;;;;;5056941;28;20394;-82
2020/12/08 09:16:55;;;;;;;20.75;14.25;;;8.30;99.90;;;;;;5057013;28;20374;-84
2020/12/08 09:19:21;;;;;;;21.60;14.65;;;8.30;99.90;;;;;;5057093;28;20461;-87
2020/12/08 09:21:54;;;;;;;21.00;13.70;;;8.40;99.90;;;;;;5074966;28;20420;-87
2020/12/08 09:24:20;;;;;;;26.67;16.45;;;8.50;99.90;;;;;;5074830;28;20370;-86
2020/12/08 09:26:46;;;;;;;21.23;15.05;;;8.60;99.90;;;;;;5075189;28;20904;-85
2020/12/08 09:29:12;;;;;;;27.00;17.67;;;8.70;99.90;;;;;;5074621;28;20450;-85
2020/12/08 09:31:40;;;;;;;25.15;16.20;;;8.70;99.90;;;;;;5073197;28;20373;-85
2020/12/08 09:34:06;;;;;;;26.88;16.17;;;8.80;99.90;;;;;;5050098;28;20381;-86
2020/12/08 09:36:32;;;;;;;25.20;16.20;;;8.80;99.90;;;;;;5075956;28;20362;-86
2020/12/08 09:38:58;;;;;;;21.38;15.25;;;8.80;99.90;;;;;;5084333;28;20396;-85
2020/12/08 09:41:24;;;;;;;26.90;18.45;;;8.90;99.90;;;;;;5082372;28;20408;-87
2020/12/08 09:43:50;;;;;;;25.77;17.80;;;8.90;99.90;;;;;;5056459;28;20382;-87
2020/12/08 09:46:16;;;;;;;24.38;18.27;;;9.00;99.90;;;;;;5072693;28;20369;-86
2020/12/08 09:48:42;;;;;;;24.67;15.80;;;9.10;99.90;;;;;;5079934;28;20928;-86
2020/12/08 09:51:08;;;;;;;22.83;16.27;;;9.20;99.90;;;;;;5083781;28;20416;-87
2020/12/08 09:53:34;;;;;;;20.60;13.73;;;9.30;99.90;;;;;;5069234;28;20407;-87
2020/12/08 09:55:59;;;;;;;22.00;14.23;;;9.40;99.90;;;;;;5077545;28;20366;-88
2020/12/08 09:58:25;;;;;;;21.07;14.40;;;9.40;99.90;;;;;;5072505;28;20748;-88
2020/12/08 10:00:51;;;;;;;25.40;16.15;;;9.40;99.90;;;;;;5063261;28;20385;-86
2020/12/08 10:03:17;;;;;;;18.10;12.45;;;9.50;99.90;;;;;;5083016;28;20372;-87
2020/12/08 10:05:43;;;;;;;73.10;15.35;;;9.60;99.90;;;;;;5065265;28;20729;-81
2020/12/08 10:08:08;;;;;;;35.63;19.08;;;9.80;99.90;;;;;;5075300;28;20459;-80
2020/12/08 10:10:34;;;;;;;48.30;18.40;;;9.90;99.90;;;;;;5073820;28;20390;-83
2020/12/08 10:13:00;;;;;;;36.03;17.70;;;10.10;99.90;;;;;;5072742;28;20842;-83
2020/12/08 10:15:27;;;;;;;79.22;49.83;;;10.30;99.90;;;;;;5050814;28;20396;-84
2020/12/08 10:17:53;;;;;;;38.33;22.35;;;10.40;99.90;;;;;;5055586;28;20461;-84
2020/12/08 10:20:19;;;;;;;103.20;58.72;;;10.60;99.90;;;;;;5075220;28;20539;-84
2020/12/08 10:22:45;;;;;;;36.22;24.73;;;10.70;99.90;;;;;;5079195;28;20371;-83
2020/12/08 10:25:11;;;;;;;40.93;29.00;;;10.60;98.70;;;;;;5086120;28;20376;-82
2020/12/08 10:27:37;;;;;;;35.27;23.83;;;10.70;99.80;;;;;;5079773;28;20366;-78
2020/12/08 10:30:06;;;;;;;49.17;32.25;;;10.90;99.20;;;;;;5071667;28;20378;-87
2020/12/08 10:32:32;;;;;;;25.02;17.33;;;10.90;98.50;;;;;;5087934;28;21213;-86
2020/12/08 10:34:57;;;;;;;62.13;42.05;;;11.00;99.10;;;;;;5081151;28;20384;-83
2020/12/08 10:37:23;;;;;;;33.85;23.52;;;11.20;98.70;;;;;;5063482;28;20390;-85
2020/12/08 10:39:49;;;;;;;24.50;15.60;;;11.10;98.10;;;;;;5088305;28;20361;-84
2020/12/08 10:42:15;;;;;;;27.73;18.48;;;11.00;97.40;;;;;;5058550;28;20370;-84
2020/12/08 10:44:41;;;;;;;24.27;15.48;;;11.10;97.10;;;;;;5087510;28;20773;-87
2020/12/08 10:47:06;;;;;;;22.90;13.35;;;11.20;97.30;;;;;;5054841;28;20382;-87
2020/12/08 10:49:32;;;;;;;23.10;14.25;;;11.20;97.60;;;;;;5055230;28;20435;-84
2020/12/08 10:51:58;;;;;;;26.17;17.90;;;11.20;95.60;;;;;;5054906;28;20419;-86
2020/12/08 10:54:24;;;;;;;28.70;18.13;;;11.10;97.90;;;;;;5054668;28;20397;-86
2020/12/08 10:56:51;;;;;;;27.77;17.33;;;11.50;97.60;;;;;;5072716;28;20370;-84
2020/12/08 10:59:17;;;;;;;26.60;17.77;;;11.50;96.20;;;;;;5054628;28;20389;-85
2020/12/08 11:01:42;;;;;;;23.40;16.07;;;11.50;96.50;;;;;;5072037;28;20358;-84
2020/12/08 11:04:08;;;;;;;23.70;15.23;;;11.50;96.10;;;;;;5072359;28;20904;-83
2020/12/08 11:06:35;;;;;;;24.35;17.05;;;11.50;96.10;;;;;;5072420;28;20484;-85
2020/12/08 11:09:01;;;;;;;67.53;53.80;;;11.40;95.80;;;;;;5072042;28;20374;-83
2020/12/08 11:11:29;;;;;;;27.85;20.77;;;11.40;97.70;;;;;;5054191;28;20827;-85
2020/12/08 11:13:56;;;;;;;25.73;16.83;;;11.60;98.40;;;;;;5072147;28;20385;-83
2020/12/08 11:16:23;;;;;;;25.58;18.02;;;11.70;97.20;;;;;;5071992;28;20372;-84
2020/12/08 11:18:49;;;;;;;27.13;17.70;;;11.80;95.60;;;;;;5072559;28;20370;-85
2020/12/08 11:21:16;;;;;;;30.63;18.88;;;11.90;95.70;;;;;;5054528;28;20419;-84
2020/12/08 11:23:42;;;;;;;26.50;18.38;;;12.00;96.00;;;;;;5054348;28;20408;-81
2020/12/08 11:26:11;;;;;;;28.30;21.00;;;12.10;94.90;;;;;;5072532;28;20363;-86
2020/12/08 11:28:37;;;;;;;17.83;12.80;;;12.10;94.50;;;;;;5054458;28;20404;-86
2020/12/08 11:31:03;;;;;;;37.58;25.70;;;12.20;93.90;;;;;;5054459;28;20374;-85
2020/12/08 11:33:29;;;;;;;27.25;17.60;;;12.30;95.30;;;;;;5071937;28;20451;-85
2020/12/08 11:35:56;;;;;;;28.60;18.17;;;12.30;95.10;;;;;;5070285;28;20906;-86
2020/12/08 11:38:22;;;;;;;33.72;21.77;;;12.50;94.10;;;;;;5069057;28;20457;-85
2020/12/08 11:40:48;;;;;;;26.13;17.42;;;12.50;93.90;;;;;;5045642;28;20360;-85
2020/12/08 11:43:13;;;;;;;126.25;76.38;;;12.50;93.20;;;;;;5071535;28;21085;-85
2020/12/08 11:45:39;;;;;;;184.18;87.90;;;12.70;93.40;;;;;;5071862;28;20435;-82
2020/12/08 11:48:05;;;;;;;237.90;109.63;;;12.50;92.60;;;;;;5078934;28;20366;-81
2020/12/08 11:50:31;;;;;;;83.13;42.90;;;12.40;93.10;;;;;;5071589;28;20377;-81
2020/12/08 11:52:57;;;;;;;138.93;65.80;;;12.30;93.30;;;;;;5071521;28;20366;-80
2020/12/08 11:55:23;;;;;;;79.67;40.90;;;12.30;93.40;;;;;;5070003;28;20460;-80
2020/12/08 11:57:49;;;;;;;288.43;159.97;;;12.20;92.80;;;;;;5072115;28;20416;-86
2020/12/08 12:00:14;;;;;;;258.67;119.77;;;12.10;93.20;;;;;;5070265;28;20373;-85
2020/12/08 12:02:40;;;;;;;99.88;47.83;;;12.10;93.40;;;;;;5071032;28;20733;-87
2020/12/08 12:05:07;;;;;;;95.13;52.92;;;12.00;94.50;;;;;;5054013;28;20459;-84
2020/12/08 12:07:33;;;;;;;62.65;39.50;;;11.90;95.00;;;;;;5071978;28;20358;-86
2020/12/08 12:09:59;;;;;;;58.78;36.10;;;11.90;94.80;;;;;;5053751;28;20390;-82
2020/12/08 12:12:25;;;;;;;76.28;47.25;;;11.90;95.50;;;;;;5071621;28;20424;-84
2020/12/08 12:14:51;;;;;;;131.70;89.60;;;12.00;95.40;;;;;;5056986;28;20385;-83
2020/12/08 12:17:17;;;;;;;64.07;43.20;;;12.20;94.80;;;;;;5057845;28;20373;-83
2020/12/08 12:19:43;;;;;;;93.07;59.70;;;12.30;94.70;;;;;;5075873;28;20372;-82
2020/12/08 12:22:09;;;;;;;46.63;29.97;;;12.30;93.70;;;;;;5075877;28;20362;-83
2020/12/08 12:24:34;;;;;;;30.73;22.93;;;11.90;93.80;;;;;;5075734;28;20398;-81
2020/12/08 12:27:00;;;;;;;64.70;42.05;;;11.80;95.20;;;;;;5057579;28;20378;-81
2020/12/08 12:29:26;;;;;;;40.22;26.48;;;12.00;95.50;;;;;;5057683;28;20431;-81
2020/12/08 12:31:52;;;;;;;43.15;27.83;;;12.10;95.60;;;;;;5057665;28;20864;-81
2020/12/08 12:34:18;;;;;;;53.60;32.47;;;12.10;94.80;;;;;;5057355;28;20424;-80
2020/12/08 12:36:47;;;;;;;45.72;29.42;;;12.00;95.10;;;;;;5075546;28;20373;-81